createdAt,value
2019-01-08T00:02:25.842Z,20.63
2019-01-08T00:04:55.645Z,21.00
2019-01-08T00:07:26.333Z,20.57
2019-01-08T00:09:56.118Z,20.93
2019-01-08T00:12:26.041Z,21.37
2019-01-08T00:14:55.976Z,21.40
2019-01-08T00:17:25.777Z,22.73
2019-01-08T00:19:55.403Z,23.57
2019-01-08T00:22:25.137Z,21.50
2019-01-08T00:24:54.831Z,22.47
2019-01-08T00:27:24.706Z,21.93
2019-01-08T00:29:54.415Z,23.27
2019-01-08T00:32:24.223Z,23.10
2019-01-08T00:34:54.042Z,23.97
2019-01-08T00:37:23.744Z,22.83
2019-01-08T00:39:53.523Z,24.43
2019-01-08T00:42:24.972Z,23.87
2019-01-08T00:44:54.674Z,22.57
2019-01-08T00:47:24.401Z,23.60
2019-01-08T00:49:54.523Z,23.37
2019-01-08T00:52:25.846Z,23.60
2019-01-08T00:54:55.707Z,22.93
2019-01-08T00:57:25.434Z,23.93
2019-01-08T00:59:55.144Z,23.20
2019-01-08T01:02:24.935Z,22.50
2019-01-08T01:04:54.717Z,23.17
2019-01-08T01:07:24.550Z,23.50
2019-01-08T01:09:54.786Z,22.30
2019-01-08T01:12:25.467Z,23.07
2019-01-08T01:14:55.247Z,22.40
2019-01-08T01:17:25.617Z,22.60
2019-01-08T01:19:55.789Z,22.37
2019-01-08T01:22:26.056Z,22.30
2019-01-08T01:24:55.884Z,22.23
2019-01-08T01:27:25.576Z,22.73
2019-01-08T01:29:55.315Z,21.40
2019-01-08T01:32:25.047Z,21.47
2019-01-08T01:34:54.769Z,22.50
2019-01-08T01:37:24.395Z,22.10
2019-01-08T01:39:54.228Z,22.37
2019-01-08T01:42:24.045Z,22.13
2019-01-08T01:44:54.795Z,21.93
2019-01-08T01:47:24.729Z,21.93
2019-01-08T01:49:54.654Z,22.33
2019-01-08T01:52:24.529Z,21.43
2019-01-08T01:54:54.336Z,22.13
2019-01-08T01:57:24.064Z,21.83
2019-01-08T01:59:53.818Z,21.97
2019-01-08T02:02:23.636Z,21.50
2019-01-08T02:04:54.733Z,22.20
2019-01-08T02:07:24.977Z,22.33
2019-01-08T02:09:54.709Z,21.27
2019-01-08T02:12:24.324Z,20.63
2019-01-08T02:14:54.062Z,22.83
2019-01-08T02:17:23.901Z,21.70
2019-01-08T02:19:53.702Z,22.63
2019-01-08T02:22:23.659Z,22.60
2019-01-08T02:24:53.432Z,22.23
2019-01-08T02:27:23.268Z,22.23
2019-01-08T02:29:53.080Z,21.93
2019-01-08T02:32:23.015Z,22.97
2019-01-08T02:34:52.722Z,22.97
2019-01-08T02:37:22.520Z,22.90
2019-01-08T02:39:52.255Z,22.30
2019-01-08T02:42:21.869Z,22.93
2019-01-08T02:44:51.623Z,23.37
2019-01-08T02:47:21.379Z,22.93
2019-01-08T02:49:51.335Z,22.77
2019-01-08T02:52:21.596Z,23.60
2019-01-08T02:54:51.269Z,24.20
2019-01-08T02:57:20.979Z,24.37
2019-01-08T02:59:50.698Z,24.10
2019-01-08T03:02:20.415Z,24.50
2019-01-08T03:04:51.966Z,24.27
2019-01-08T03:07:21.655Z,24.40
2019-01-08T03:09:51.385Z,23.77
2019-01-08T03:12:21.021Z,25.27
2019-01-08T03:14:50.744Z,25.07
2019-01-08T03:17:21.051Z,25.77
2019-01-08T03:19:50.917Z,24.73
2019-01-08T03:22:20.636Z,24.20
2019-01-08T03:24:50.368Z,26.50
2019-01-08T03:27:20.027Z,25.40
2019-01-08T03:29:49.718Z,24.93
2019-01-08T03:32:19.395Z,25.67
2019-01-08T03:34:49.117Z,25.10
2019-01-08T03:37:18.937Z,25.10
2019-01-08T03:39:48.734Z,25.93
2019-01-08T03:42:18.474Z,24.40
2019-01-08T03:44:48.177Z,26.00
2019-01-08T03:47:17.905Z,26.53
2019-01-08T03:49:47.525Z,26.77
2019-01-08T03:52:17.415Z,25.30
2019-01-08T03:54:47.189Z,26.27
2019-01-08T03:57:16.991Z,25.60
2019-01-08T03:59:46.672Z,26.13
2019-01-08T04:02:16.587Z,25.50
2019-01-08T04:04:46.300Z,25.73
2019-01-08T04:07:16.084Z,26.10
2019-01-08T04:09:46.162Z,24.57
2019-01-08T04:12:15.816Z,26.13
2019-01-08T04:14:45.543Z,25.73
2019-01-08T04:17:15.338Z,25.33
2019-01-08T04:19:44.970Z,24.70
2019-01-08T04:22:14.777Z,25.77
2019-01-08T04:24:44.511Z,24.90
2019-01-08T04:27:14.222Z,23.63
2019-01-08T04:29:50.399Z,23.50
2019-01-08T04:32:18.000Z,22.27
2019-01-08T04:34:47.709Z,21.90
2019-01-08T04:37:17.453Z,23.07
2019-01-08T04:39:47.295Z,22.97
2019-01-08T04:42:16.995Z,23.57
2019-01-08T04:44:46.717Z,24.37
2019-01-08T04:47:16.540Z,23.30
2019-01-08T04:49:46.318Z,23.73
2019-01-08T04:52:16.105Z,23.07
2019-01-08T04:54:45.924Z,23.80
2019-01-08T04:57:16.131Z,22.10
2019-01-08T04:59:46.372Z,23.50
2019-01-08T05:02:16.201Z,23.27
2019-01-08T05:04:45.921Z,22.93
2019-01-08T05:07:15.702Z,23.23
2019-01-08T05:09:45.591Z,24.33
2019-01-08T05:12:15.353Z,22.67
2019-01-08T05:14:45.053Z,23.00
2019-01-08T05:17:14.812Z,21.70
2019-01-08T05:19:44.647Z,22.37
2019-01-08T05:22:14.796Z,22.63
2019-01-08T05:24:44.480Z,23.57
2019-01-08T05:27:15.277Z,22.40
2019-01-08T05:29:45.037Z,22.93
2019-01-08T05:32:14.749Z,22.87
2019-01-08T05:34:44.562Z,23.07
2019-01-08T05:37:14.330Z,23.47
2019-01-08T05:39:44.181Z,22.67
2019-01-08T05:42:13.981Z,24.30
2019-01-08T05:44:43.704Z,22.80
2019-01-08T05:47:13.305Z,23.07
2019-01-08T05:49:43.112Z,23.80
2019-01-08T05:52:12.886Z,23.03
2019-01-08T05:54:42.468Z,23.03
2019-01-08T05:57:12.093Z,23.37
2019-01-08T05:59:41.843Z,23.30
2019-01-08T06:02:11.604Z,23.00
2019-01-08T06:04:41.576Z,24.43
2019-01-08T06:07:11.982Z,24.07
2019-01-08T06:09:41.666Z,25.97
2019-01-08T06:12:11.490Z,25.47
2019-01-08T06:14:41.322Z,25.53
2019-01-08T06:17:11.096Z,25.07
2019-01-08T06:19:40.880Z,26.23
2019-01-08T06:22:10.675Z,25.37
2019-01-08T06:24:40.492Z,25.03
2019-01-08T06:27:10.276Z,26.23
2019-01-08T06:29:40.034Z,26.17
2019-01-08T06:32:09.845Z,27.17
2019-01-08T06:34:39.685Z,40.17
2019-01-08T06:37:09.334Z,27.83
2019-01-08T06:39:39.059Z,25.70
2019-01-08T06:42:08.734Z,25.80
2019-01-08T06:44:38.279Z,26.40
2019-01-08T06:47:08.347Z,25.17
2019-01-08T06:49:38.071Z,24.67
2019-01-08T06:52:08.006Z,24.10
2019-01-08T06:54:37.829Z,23.90
2019-01-08T06:57:07.500Z,23.97
2019-01-08T06:59:37.327Z,22.80
2019-01-08T07:02:07.185Z,23.97
2019-01-08T07:04:37.059Z,24.83
2019-01-08T07:07:06.784Z,24.80
2019-01-08T07:09:36.626Z,24.30
2019-01-08T07:12:06.405Z,26.17
2019-01-08T07:14:36.147Z,26.83
2019-01-08T07:17:06.005Z,25.83
2019-01-08T07:19:35.722Z,25.70
2019-01-08T07:22:05.465Z,25.87
2019-01-08T07:24:35.240Z,24.93
2019-01-08T07:27:04.932Z,24.73
2019-01-08T07:29:34.722Z,26.03
2019-01-08T07:32:04.459Z,26.73
2019-01-08T07:34:34.554Z,25.80
2019-01-08T07:37:04.427Z,26.23
2019-01-08T07:39:34.114Z,25.37
2019-01-08T07:42:03.854Z,25.33
2019-01-08T07:44:33.590Z,25.17
2019-01-08T07:47:03.319Z,27.20
2019-01-08T07:49:33.243Z,24.40
2019-01-08T07:52:02.976Z,25.67
2019-01-08T07:54:32.757Z,25.47
2019-01-08T07:57:02.560Z,24.93
2019-01-08T07:59:32.279Z,23.47
2019-01-08T08:02:02.026Z,24.07
2019-01-08T08:04:31.818Z,24.10
2019-01-08T08:07:01.612Z,24.33
2019-01-08T08:09:31.472Z,22.90
2019-01-08T08:12:01.247Z,23.47
2019-01-08T08:14:30.985Z,24.47
2019-01-08T08:17:01.273Z,24.23
2019-01-08T08:19:31.083Z,23.63
2019-01-08T08:22:00.826Z,24.37
2019-01-08T08:24:30.645Z,25.33
2019-01-08T08:27:00.452Z,24.83
2019-01-08T08:29:30.609Z,24.77
2019-01-08T08:32:00.470Z,25.17
2019-01-08T08:34:30.218Z,26.20
2019-01-08T08:36:59.899Z,26.27
2019-01-08T08:39:29.775Z,26.00
2019-01-08T08:41:59.654Z,32.67
2019-01-08T08:44:29.370Z,31.63
2019-01-08T08:46:59.204Z,28.17
2019-01-08T08:49:28.948Z,26.77
2019-01-08T08:51:58.592Z,27.93
2019-01-08T08:54:28.343Z,26.23
2019-01-08T08:56:58.083Z,27.93
2019-01-08T08:59:27.886Z,28.83
2019-01-08T09:01:58.131Z,29.27
2019-01-08T09:04:27.941Z,27.03
2019-01-08T09:06:57.704Z,27.17
2019-01-08T09:09:27.526Z,27.17
2019-01-08T09:11:57.342Z,27.97
2019-01-08T09:14:26.983Z,27.90
2019-01-08T09:16:56.709Z,27.23
2019-01-08T09:19:27.381Z,27.70
2019-01-08T09:21:57.183Z,28.00
2019-01-08T09:24:26.934Z,27.47
2019-01-08T09:26:56.641Z,28.70
2019-01-08T09:29:26.362Z,28.60
2019-01-08T09:31:56.202Z,28.00
2019-01-08T09:34:26.201Z,28.10
2019-01-08T09:36:55.983Z,28.13
2019-01-08T09:39:25.825Z,28.03
2019-01-08T09:41:55.635Z,27.40
2019-01-08T09:44:25.323Z,28.30
2019-01-08T09:46:55.229Z,27.73
2019-01-08T09:49:26.075Z,28.53
2019-01-08T09:51:55.922Z,27.97
2019-01-08T09:54:25.703Z,28.57
2019-01-08T09:56:55.441Z,30.10
2019-01-08T09:59:25.262Z,29.97
2019-01-08T10:01:55.061Z,29.53
2019-01-08T10:04:24.746Z,28.50
2019-01-08T10:06:54.585Z,28.50
2019-01-08T10:09:24.316Z,29.83
2019-01-08T10:11:54.113Z,29.17
2019-01-08T10:14:23.818Z,31.13
2019-01-08T10:16:53.705Z,29.53
2019-01-08T10:19:23.506Z,28.00
2019-01-08T10:21:53.345Z,29.57
2019-01-08T10:24:23.522Z,29.73
2019-01-08T10:26:53.280Z,28.37
2019-01-08T10:29:23.013Z,29.93
2019-01-08T10:31:52.813Z,30.20
2019-01-08T10:34:22.621Z,30.93
2019-01-08T10:36:52.424Z,30.03
2019-01-08T10:39:22.234Z,30.93
2019-01-08T10:41:51.927Z,30.40
2019-01-08T10:44:21.762Z,29.67
2019-01-08T10:46:51.524Z,29.60
2019-01-08T10:49:21.283Z,30.80
2019-01-08T10:51:51.094Z,30.57
2019-01-08T10:54:20.797Z,29.60
2019-01-08T10:56:50.506Z,34.63
2019-01-08T10:59:20.300Z,33.20
2019-01-08T11:01:50.194Z,28.93
2019-01-08T11:04:19.909Z,30.67
2019-01-08T11:06:49.833Z,29.93
2019-01-08T11:09:19.585Z,29.10
2019-01-08T11:11:49.355Z,29.33
2019-01-08T11:14:19.131Z,29.60
2019-01-08T11:16:50.515Z,28.60
2019-01-08T11:19:20.563Z,28.27
2019-01-08T11:21:50.183Z,29.23
2019-01-08T11:24:20.017Z,29.50
2019-01-08T11:26:49.887Z,30.10
2019-01-08T11:29:19.553Z,29.60
2019-01-08T11:31:49.410Z,30.47
2019-01-08T11:34:19.122Z,28.90
2019-01-08T11:36:48.834Z,28.00
2019-01-08T11:39:18.612Z,29.33
2019-01-08T11:41:48.310Z,28.43
2019-01-08T11:44:18.004Z,29.10
2019-01-08T11:46:47.822Z,27.43
2019-01-08T11:49:17.592Z,36.83
2019-01-08T11:51:47.288Z,29.43
2019-01-08T11:54:17.152Z,28.87
2019-01-08T11:56:46.955Z,28.07
2019-01-08T11:59:16.742Z,28.83
2019-01-08T12:01:47.304Z,29.07
2019-01-08T12:04:16.949Z,36.03
2019-01-08T12:06:46.762Z,36.13
2019-01-08T12:09:16.429Z,31.03
2019-01-08T12:11:46.160Z,30.90
2019-01-08T12:14:15.859Z,31.63
2019-01-08T12:16:45.670Z,30.67
2019-01-08T12:19:15.489Z,29.57
2019-01-08T12:21:45.260Z,29.73
2019-01-08T12:24:15.113Z,32.33
2019-01-08T12:26:45.137Z,34.37
2019-01-08T12:29:15.302Z,31.43
2019-01-08T12:31:45.521Z,30.23
2019-01-08T12:34:15.346Z,30.70
2019-01-08T12:36:45.102Z,36.27
2019-01-08T12:39:15.012Z,31.77
2019-01-08T12:41:44.838Z,36.13
2019-01-08T12:44:14.563Z,31.60
2019-01-08T12:46:44.393Z,31.07
2019-01-08T12:49:14.136Z,31.53
2019-01-08T12:51:43.938Z,30.60
2019-01-08T12:54:13.794Z,30.50
2019-01-08T12:56:43.579Z,29.40
2019-01-08T12:59:14.983Z,29.73
2019-01-08T13:01:44.813Z,30.97
2019-01-08T13:04:14.524Z,31.37
2019-01-08T13:06:44.309Z,30.67
2019-01-08T13:09:14.082Z,30.10
2019-01-08T13:11:43.825Z,30.13
2019-01-08T13:14:13.657Z,30.27
2019-01-08T13:16:44.046Z,29.83
2019-01-08T13:19:13.899Z,29.97
2019-01-08T13:21:43.664Z,29.83
2019-01-08T13:24:13.415Z,29.43
2019-01-08T13:26:43.396Z,28.60
2019-01-08T13:29:13.154Z,30.43
2019-01-08T13:31:42.963Z,30.70
2019-01-08T13:34:12.695Z,29.63
2019-01-08T13:36:42.415Z,28.80
2019-01-08T13:39:12.250Z,85.53
2019-01-08T13:41:42.076Z,33.90
2019-01-08T13:44:13.455Z,28.77
2019-01-08T13:46:43.195Z,29.80
2019-01-08T13:49:12.912Z,29.60
2019-01-08T13:51:42.693Z,29.47
2019-01-08T13:54:12.472Z,29.70
2019-01-08T13:56:42.313Z,31.23
2019-01-08T13:59:12.493Z,29.07
2019-01-08T14:01:42.260Z,29.93
2019-01-08T14:04:11.915Z,27.87
2019-01-08T14:06:41.695Z,29.50
2019-01-08T14:09:11.513Z,28.57
2019-01-08T14:11:41.311Z,29.87
2019-01-08T14:14:11.152Z,29.30
2019-01-08T14:16:41.019Z,29.33
2019-01-08T14:19:10.733Z,28.60
2019-01-08T14:21:40.701Z,30.60
2019-01-08T14:24:10.550Z,28.63
2019-01-08T14:26:40.343Z,28.13
2019-01-08T14:29:10.096Z,29.63
2019-01-08T14:31:39.910Z,29.70
2019-01-08T14:34:09.763Z,30.73
2019-01-08T14:36:39.905Z,30.13
2019-01-08T14:39:09.739Z,31.37
2019-01-08T14:41:39.541Z,32.77
2019-01-08T14:44:09.331Z,30.70
2019-01-08T14:46:39.139Z,29.90
2019-01-08T14:49:08.940Z,31.07
2019-01-08T14:51:38.743Z,44.63
2019-01-08T14:54:08.425Z,32.47
2019-01-08T14:56:38.264Z,30.77
2019-01-08T14:59:08.139Z,30.20
2019-01-08T15:01:37.857Z,32.10
2019-01-08T15:04:07.677Z,31.33
2019-01-08T15:06:37.474Z,33.07
2019-01-08T15:09:07.686Z,31.00
2019-01-08T15:11:37.405Z,29.97
2019-01-08T15:14:07.124Z,29.67
2019-01-08T15:16:36.934Z,29.20
2019-01-08T15:19:06.723Z,27.90
2019-01-08T15:21:36.422Z,32.17
2019-01-08T15:24:06.543Z,31.17
2019-01-08T15:26:36.453Z,29.13
2019-01-08T15:29:06.278Z,29.37
2019-01-08T15:31:36.145Z,35.17
2019-01-08T15:34:05.980Z,29.17
2019-01-08T15:36:36.802Z,29.30
2019-01-08T15:39:07.199Z,28.80
2019-01-08T15:41:36.981Z,30.73
2019-01-08T15:44:14.969Z,29.10
2019-01-08T15:46:38.155Z,29.70
2019-01-08T15:49:07.981Z,30.17
2019-01-08T15:51:37.702Z,29.83
2019-01-08T15:54:07.500Z,29.63
2019-01-08T15:56:37.305Z,35.23
2019-01-08T15:59:07.102Z,31.63
2019-01-08T16:01:36.937Z,29.87
2019-01-08T16:04:06.707Z,30.50
2019-01-08T16:06:36.554Z,29.67
2019-01-08T16:09:07.365Z,31.60
2019-01-08T16:11:37.167Z,46.00
2019-01-08T16:14:06.868Z,36.43
2019-01-08T16:16:36.685Z,32.47
2019-01-08T16:19:06.524Z,30.97
2019-01-08T16:21:36.418Z,30.07
2019-01-08T16:24:06.715Z,32.07
2019-01-08T16:26:36.695Z,32.13
2019-01-08T16:29:06.496Z,30.53
2019-01-08T16:31:36.345Z,30.40
2019-01-08T16:34:06.231Z,31.10
2019-01-08T16:36:36.074Z,31.77
2019-01-08T16:39:07.984Z,31.23
2019-01-08T16:41:37.817Z,34.70
2019-01-08T16:44:07.643Z,33.80
2019-01-08T16:46:39.101Z,33.03
2019-01-08T16:49:09.483Z,33.50
2019-01-08T16:51:39.773Z,33.33
2019-01-08T16:54:09.672Z,32.83
2019-01-08T16:56:39.507Z,30.17
2019-01-08T16:59:09.341Z,29.43
2019-01-08T17:01:39.177Z,29.63
2019-01-08T17:04:09.000Z,29.30
2019-01-08T17:06:38.843Z,29.80
2019-01-08T17:09:09.160Z,31.37
2019-01-08T17:11:38.946Z,30.70
2019-01-08T17:14:08.777Z,31.27
2019-01-08T17:16:38.605Z,33.57
2019-01-08T17:19:08.471Z,33.87
2019-01-08T17:21:38.309Z,35.43
2019-01-08T17:24:08.180Z,33.13
2019-01-08T17:26:37.994Z,32.57
2019-01-08T17:29:07.838Z,33.13
2019-01-08T17:31:37.666Z,31.37
2019-01-08T17:34:07.527Z,32.90
2019-01-08T17:36:37.517Z,33.90
2019-01-08T17:39:08.033Z,33.80
2019-01-08T17:41:38.005Z,34.23
2019-01-08T17:44:07.837Z,33.77
2019-01-08T17:46:37.721Z,50.50
2019-01-08T17:49:07.707Z,36.33
2019-01-08T17:51:37.695Z,33.37
2019-01-08T17:54:07.581Z,32.77
2019-01-08T17:56:37.400Z,32.53
2019-01-08T17:59:09.719Z,34.30
2019-01-08T18:01:42.102Z,32.97
2019-01-08T18:04:12.862Z,35.13
2019-01-08T18:06:42.671Z,35.50
2019-01-08T18:09:12.811Z,32.87
2019-01-08T18:11:42.617Z,35.57
2019-01-08T18:14:12.451Z,34.63
2019-01-08T18:16:42.367Z,33.37
2019-01-08T18:19:12.208Z,33.77
2019-01-08T18:21:42.022Z,33.47
2019-01-08T18:24:12.016Z,35.33
2019-01-08T18:26:43.512Z,32.77
2019-01-08T18:29:13.340Z,32.97
2019-01-08T18:31:43.262Z,33.90
2019-01-08T18:34:13.060Z,32.60
2019-01-08T18:36:42.952Z,34.33
2019-01-08T18:39:13.074Z,38.27
2019-01-08T18:41:42.926Z,43.37
2019-01-08T18:44:12.902Z,36.00
2019-01-08T18:46:43.047Z,38.63
2019-01-08T18:49:12.893Z,33.90
2019-01-08T18:51:42.837Z,46.43
2019-01-08T18:54:12.684Z,37.33
2019-01-08T18:56:42.567Z,36.00
2019-01-08T18:59:15.480Z,37.13
2019-01-08T19:01:45.320Z,63.17
2019-01-08T19:04:15.148Z,54.87
2019-01-08T19:06:44.991Z,57.67
2019-01-08T19:09:26.705Z,58.40
2019-01-08T19:11:59.366Z,52.03
2019-01-08T19:14:32.287Z,51.00
2019-01-08T19:17:02.303Z,48.80
2019-01-08T19:19:32.515Z,46.37
2019-01-08T19:22:02.385Z,45.37
2019-01-08T19:24:32.371Z,45.00
2019-01-08T19:27:02.358Z,43.67
2019-01-08T19:29:32.226Z,43.93
2019-01-08T19:32:02.048Z,43.40
2019-01-08T19:34:32.169Z,43.47
2019-01-08T19:37:02.057Z,52.40
2019-01-08T19:39:31.902Z,38.40
2019-01-08T19:42:02.020Z,37.33
2019-01-08T19:44:31.871Z,56.70
2019-01-08T19:47:01.689Z,40.37
2019-01-08T19:49:31.996Z,37.60
2019-01-08T19:52:04.107Z,38.73
2019-01-08T19:54:36.475Z,37.77
2019-01-08T19:57:08.365Z,37.63
2019-01-08T19:59:38.285Z,37.43
2019-01-08T20:02:08.134Z,35.27
2019-01-08T20:04:37.970Z,33.57
2019-01-08T20:07:07.870Z,35.80
2019-01-08T20:09:40.292Z,36.20
2019-01-08T20:12:10.886Z,36.30
2019-01-08T20:14:40.763Z,36.90
2019-01-08T20:17:10.605Z,35.80
2019-01-08T20:19:40.450Z,35.77
2019-01-08T20:22:10.718Z,37.20
2019-01-08T20:24:42.198Z,37.23
2019-01-08T20:27:12.333Z,36.47
2019-01-08T20:29:42.232Z,36.33
2019-01-08T20:32:12.050Z,35.30
2019-01-08T20:34:43.822Z,36.30
2019-01-08T20:37:14.037Z,41.60
2019-01-08T20:39:47.652Z,41.23
2019-01-08T20:42:20.725Z,39.90
2019-01-08T20:44:50.710Z,38.70
2019-01-08T20:47:20.552Z,37.83
2019-01-08T20:49:50.315Z,41.07
2019-01-08T20:52:20.152Z,40.97
2019-01-08T20:54:49.982Z,39.07
2019-01-08T20:57:20.712Z,39.17
2019-01-08T20:59:50.600Z,34.50
2019-01-08T21:02:20.932Z,33.77
2019-01-08T21:04:50.714Z,31.70
2019-01-08T21:07:20.600Z,30.93
2019-01-08T21:09:50.455Z,29.27
2019-01-08T21:12:20.300Z,31.27
2019-01-08T21:14:50.167Z,30.87
2019-01-08T21:17:20.322Z,31.00
2019-01-08T21:19:50.182Z,30.43
2019-01-08T21:22:20.099Z,30.90
2019-01-08T21:24:49.936Z,30.80
2019-01-08T21:27:19.752Z,31.53
2019-01-08T21:29:49.596Z,31.47
2019-01-08T21:32:19.416Z,35.67
2019-01-08T21:34:49.277Z,38.00
2019-01-08T21:37:19.573Z,35.73
2019-01-08T21:39:50.407Z,35.43
2019-01-08T21:42:20.308Z,34.23
2019-01-08T21:44:50.137Z,34.50
2019-01-08T21:47:19.924Z,36.80
2019-01-08T21:49:49.784Z,37.37
2019-01-08T21:52:19.565Z,36.27
2019-01-08T21:54:49.387Z,33.47
2019-01-08T21:57:19.232Z,34.70
2019-01-08T21:59:49.052Z,33.63
2019-01-08T22:02:18.823Z,35.53
2019-01-08T22:04:53.266Z,32.63
2019-01-08T22:07:21.665Z,34.33
2019-01-08T22:09:54.052Z,33.40
2019-01-08T22:12:23.856Z,34.63
2019-01-08T22:14:56.253Z,34.00
2019-01-08T22:17:29.197Z,34.53
2019-01-08T22:19:58.985Z,34.20
2019-01-08T22:22:28.800Z,34.27
2019-01-08T22:25:01.108Z,34.00
2019-01-08T22:27:30.902Z,32.77
2019-01-08T22:30:04.624Z,31.90
2019-01-08T22:32:35.600Z,34.67
2019-01-08T22:35:05.885Z,32.10
2019-01-08T22:37:40.327Z,32.30
2019-01-08T22:40:12.788Z,32.63
2019-01-08T22:42:42.637Z,33.53
2019-01-08T22:45:12.376Z,31.53
2019-01-08T22:47:42.190Z,29.60
2019-01-08T22:50:12.044Z,32.37
2019-01-08T22:52:41.830Z,31.20
2019-01-08T22:55:11.594Z,30.13
2019-01-08T22:57:41.317Z,28.87
2019-01-08T23:00:15.409Z,28.93
2019-01-08T23:02:48.269Z,29.30
2019-01-08T23:05:17.961Z,28.67
2019-01-08T23:07:47.603Z,29.30
2019-01-08T23:10:17.478Z,29.50
2019-01-08T23:12:47.165Z,29.40
2019-01-08T23:15:16.884Z,26.93
2019-01-08T23:17:46.635Z,26.37
2019-01-08T23:20:16.403Z,25.13
2019-01-08T23:22:46.644Z,25.40
2019-01-08T23:25:16.523Z,26.43
2019-01-08T23:27:46.284Z,26.07
2019-01-08T23:30:15.983Z,25.47
2019-01-08T23:32:45.798Z,26.33
2019-01-08T23:35:19.636Z,25.47
2019-01-08T23:37:47.115Z,27.03
2019-01-08T23:40:16.937Z,24.43
2019-01-08T23:42:46.616Z,24.57
2019-01-08T23:45:16.349Z,24.87
2019-01-08T23:47:46.180Z,24.07
2019-01-08T23:50:15.907Z,25.43
2019-01-08T23:53:07.645Z,23.43
2019-01-08T23:55:41.717Z,23.50
2019-01-08T23:58:15.994Z,23.43
